sensor_id;sensor_type;location;lat;lon;timestamp;P1;durP1;ratioP1;P2;durP2;ratioP2
487;SDS011;16586;48.976;9.584;2022-11-14T00:00:41;4.10;;;3.90;;
487;SDS011;16586;48.976;9.584;2022-11-14T00:03:09;4.28;;;4.00;;
487;SDS011;16586;48.976;9.584;2022-11-14T00:05:37;4.40;;;4.10;;
487;SDS011;16586;48.976;9.584;2022-11-14T00:08:06;5.00;;;4.20;;
487;SDS011;16586;48.976;9.584;2022-11-14T00:10:37;4.40;;;4.13;;
487;SDS011;16586;48.976;9.584;2022-11-14T00:13:03;4.60;;;4.30;;
487;SDS011;16586;48.976;9.584;2022-11-14T00:15:32;4.00;;;3.80;;
487;SDS011;16586;48.976;9.584;2022-11-14T00:17:58;4.07;;;3.90;;
487;SDS011;16586;48.976;9.584;2022-11-14T00:20:25;3.80;;;3.60;;
487;SDS011;16586;48.976;9.584;2022-11-14T00:22:52;4.30;;;3.80;;
487;SDS011;16586;48.976;9.584;2022-11-14T00:25:19;3.90;;;3.70;;
487;SDS011;16586;48.976;9.584;2022-11-14T00:27:45;3.85;;;3.65;;
487;SDS011;16586;48.976;9.584;2022-11-14T00:30:12;3.50;;;3.30;;
487;SDS011;16586;48.976;9.584;2022-11-14T00:32:41;4.00;;;3.80;;
487;SDS011;16586;48.976;9.584;2022-11-14T00:35:08;4.10;;;3.90;;
487;SDS011;16586;48.976;9.584;2022-11-14T00:37:35;3.47;;;3.33;;
487;SDS011;16586;48.976;9.584;2022-11-14T00:40:02;3.92;;;3.80;;
487;SDS011;16586;48.976;9.584;2022-11-14T00:42:29;3.55;;;3.35;;
487;SDS011;16586;48.976;9.584;2022-11-14T00:44:56;4.40;;;4.10;;
487;SDS011;16586;48.976;9.584;2022-11-14T00:47:22;3.50;;;3.20;;
487;SDS011;16586;48.976;9.584;2022-11-14T00:49:50;3.75;;;3.55;;
487;SDS011;16586;48.976;9.584;2022-11-14T00:52:17;4.23;;;3.97;;
487;SDS011;16586;48.976;9.584;2022-11-14T00:54:44;5.10;;;3.97;;
487;SDS011;16586;48.976;9.584;2022-11-14T00:57:11;3.83;;;3.63;;
487;SDS011;16586;48.976;9.584;2022-11-14T00:59:37;3.38;;;3.28;;
487;SDS011;16586;48.976;9.584;2022-11-14T01:02:04;3.80;;;3.60;;
487;SDS011;16586;48.976;9.584;2022-11-14T01:04:31;3.65;;;3.40;;
487;SDS011;16586;48.976;9.584;2022-11-14T01:06:59;3.50;;;3.30;;
487;SDS011;16586;48.976;9.584;2022-11-14T01:09:26;3.90;;;3.70;;
487;SDS011;16586;48.976;9.584;2022-11-14T01:11:53;3.78;;;3.58;;
487;SDS011;16586;48.976;9.584;2022-11-14T01:14:20;3.42;;;3.22;;
487;SDS011;16586;48.976;9.584;2022-11-14T01:16:46;3.17;;;3.00;;
487;SDS011;16586;48.976;9.584;2022-11-14T01:19:13;3.90;;;3.70;;
487;SDS011;16586;48.976;9.584;2022-11-14T01:21:40;3.90;;;3.70;;
487;SDS011;16586;48.976;9.584;2022-11-14T01:24:08;3.57;;;3.37;;
487;SDS011;16586;48.976;9.584;2022-11-14T01:26:35;3.67;;;3.47;;
487;SDS011;16586;48.976;9.584;2022-11-14T01:29:02;3.50;;;3.30;;
487;SDS011;16586;48.976;9.584;2022-11-14T01:31:28;3.50;;;3.30;;
487;SDS011;16586;48.976;9.584;2022-11-14T01:33:55;4.33;;;4.00;;
487;SDS011;16586;48.976;9.584;2022-11-14T01:36:22;3.63;;;3.42;;
487;SDS011;16586;48.976;9.584;2022-11-14T01:38:50;3.40;;;3.20;;
487;SDS011;16586;48.976;9.584;2022-11-14T01:41:20;3.20;;;3.00;;
487;SDS011;16586;48.976;9.584;2022-11-14T01:43:47;3.30;;;3.10;;
487;SDS011;16586;48.976;9.584;2022-11-14T01:46:16;3.70;;;3.50;;
487;SDS011;16586;48.976;9.584;2022-11-14T01:48:46;3.17;;;2.97;;
487;SDS011;16586;48.976;9.584;2022-11-14T01:51:17;4.50;;;3.30;;
487;SDS011;16586;48.976;9.584;2022-11-14T01:53:49;3.58;;;3.38;;
487;SDS011;16586;48.976;9.584;2022-11-14T01:56:20;3.40;;;3.20;;
487;SDS011;16586;48.976;9.584;2022-11-14T01:58:53;3.88;;;3.67;;
487;SDS011;16586;48.976;9.584;2022-11-14T02:01:33;3.90;;;3.70;;
487;SDS011;16586;48.976;9.584;2022-11-14T02:04:02;3.55;;;3.35;;
487;SDS011;16586;48.976;9.584;2022-11-14T02:06:31;3.70;;;3.50;;
487;SDS011;16586;48.976;9.584;2022-11-14T02:08:58;3.88;;;3.67;;
487;SDS011;16586;48.976;9.584;2022-11-14T02:11:30;3.50;;;3.30;;
487;SDS011;16586;48.976;9.584;2022-11-14T02:14:00;3.78;;;3.58;;
487;SDS011;16586;48.976;9.584;2022-11-14T02:16:27;3.25;;;3.05;;
487;SDS011;16586;48.976;9.584;2022-11-14T02:18:54;3.15;;;2.95;;
487;SDS011;16586;48.976;9.584;2022-11-14T02:21:22;3.13;;;3.00;;
487;SDS011;16586;48.976;9.584;2022-11-14T02:23:49;3.17;;;2.97;;
487;SDS011;16586;48.976;9.584;2022-11-14T02:26:16;3.40;;;3.20;;
487;SDS011;16586;48.976;9.584;2022-11-14T02:28:44;3.40;;;3.20;;
487;SDS011;16586;48.976;9.584;2022-11-14T02:31:11;3.78;;;3.20;;
487;SDS011;16586;48.976;9.584;2022-11-14T02:33:37;3.60;;;3.40;;
487;SDS011;16586;48.976;9.584;2022-11-14T02:36:05;2.95;;;2.80;;
487;SDS011;16586;48.976;9.584;2022-11-14T02:38:33;3.30;;;3.10;;
487;SDS011;16586;48.976;9.584;2022-11-14T02:41:01;3.53;;;3.33;;
487;SDS011;16586;48.976;9.584;2022-11-14T02:43:28;4.05;;;3.20;;
487;SDS011;16586;48.976;9.584;2022-11-14T02:45:55;3.20;;;3.00;;
487;SDS011;16586;48.976;9.584;2022-11-14T02:48:22;3.97;;;3.78;;
487;SDS011;16586;48.976;9.584;2022-11-14T02:50:48;4.10;;;3.90;;
487;SDS011;16586;48.976;9.584;2022-11-14T02:53:15;4.25;;;4.00;;
487;SDS011;16586;48.976;9.584;2022-11-14T02:55:44;3.97;;;3.78;;
487;SDS011;16586;48.976;9.584;2022-11-14T02:58:10;4.38;;;4.07;;
487;SDS011;16586;48.976;9.584;2022-11-14T03:00:37;4.57;;;4.28;;
487;SDS011;16586;48.976;9.584;2022-11-14T03:03:04;4.30;;;4.00;;
487;SDS011;16586;48.976;9.584;2022-11-14T03:05:31;3.83;;;3.63;;
487;SDS011;16586;48.976;9.584;2022-11-14T03:07:57;3.80;;;3.60;;
487;SDS011;16586;48.976;9.584;2022-11-14T03:10:24;4.40;;;4.10;;
487;SDS011;16586;48.976;9.584;2022-11-14T03:12:53;4.10;;;3.90;;
487;SDS011;16586;48.976;9.584;2022-11-14T03:15:20;4.10;;;3.90;;
487;SDS011;16586;48.976;9.584;2022-11-14T03:17:47;5.13;;;4.28;;
487;SDS011;16586;48.976;9.584;2022-11-14T03:20:15;4.40;;;4.10;;
487;SDS011;16586;48.976;9.584;2022-11-14T03:22:42;4.57;;;4.28;;
487;SDS011;16586;48.976;9.584;2022-11-14T03:25:09;5.50;;;5.20;;
487;SDS011;16586;48.976;9.584;2022-11-14T03:27:36;5.72;;;5.43;;
487;SDS011;16586;48.976;9.584;2022-11-14T03:30:04;5.53;;;5.22;;
487;SDS011;16586;48.976;9.584;2022-11-14T03:32:32;5.70;;;5.40;;
487;SDS011;16586;48.976;9.584;2022-11-14T03:34:59;5.53;;;5.22;;
487;SDS011;16586;48.976;9.584;2022-11-14T03:37:25;6.53;;;6.13;;
487;SDS011;16586;48.976;9.584;2022-11-14T03:39:52;6.70;;;6.30;;
487;SDS011;16586;48.976;9.584;2022-11-14T03:42:19;7.03;;;6.63;;
487;SDS011;16586;48.976;9.584;2022-11-14T03:44:46;6.60;;;6.20;;
487;SDS011;16586;48.976;9.584;2022-11-14T03:47:14;6.25;;;5.93;;
487;SDS011;16586;48.976;9.584;2022-11-14T03:49:41;5.78;;;5.47;;
487;SDS011;16586;48.976;9.584;2022-11-14T03:52:09;6.07;;;5.78;;
487;SDS011;16586;48.976;9.584;2022-11-14T03:54:35;5.78;;;5.47;;
487;SDS011;16586;48.976;9.584;2022-11-14T03:57:02;5.88;;;5.57;;
487;SDS011;16586;48.976;9.584;2022-11-14T03:59:29;5.60;;;5.30;;
487;SDS011;16586;48.976;9.584;2022-11-14T04:01:56;7.10;;;6.70;;
487;SDS011;16586;48.976;9.584;2022-11-14T04:04:24;5.80;;;5.50;;
487;SDS011;16586;48.976;9.584;2022-11-14T04:06:51;7.50;;;7.10;;
487;SDS011;16586;48.976;9.584;2022-11-14T04:09:20;7.50;;;7.10;;
487;SDS011;16586;48.976;9.584;2022-11-14T04:11:47;7.30;;;6.22;;
487;SDS011;16586;48.976;9.584;2022-11-14T04:14:13;6.68;;;6.28;;
487;SDS011;16586;48.976;9.584;2022-11-14T04:16:40;6.50;;;6.10;;
487;SDS011;16586;48.976;9.584;2022-11-14T04:19:07;6.55;;;6.15;;
487;SDS011;16586;48.976;9.584;2022-11-14T04:21:35;6.47;;;6.07;;
487;SDS011;16586;48.976;9.584;2022-11-14T04:24:02;6.25;;;5.93;;
487;SDS011;16586;48.976;9.584;2022-11-14T04:26:29;6.13;;;5.82;;
487;SDS011;16586;48.976;9.584;2022-11-14T04:28:56;6.63;;;6.22;;
487;SDS011;16586;48.976;9.584;2022-11-14T04:31:22;6.40;;;6.00;;
487;SDS011;16586;48.976;9.584;2022-11-14T04:33:49;6.90;;;6.50;;
487;SDS011;16586;48.976;9.584;2022-11-14T04:36:16;6.50;;;6.10;;
487;SDS011;16586;48.976;9.584;2022-11-14T04:38:44;6.50;;;6.10;;
487;SDS011;16586;48.976;9.584;2022-11-14T04:41:11;5.50;;;5.20;;
487;SDS011;16586;48.976;9.584;2022-11-14T04:43:38;6.70;;;6.30;;
487;SDS011;16586;48.976;9.584;2022-11-14T04:46:04;6.07;;;5.78;;
487;SDS011;16586;48.976;9.584;2022-11-14T04:48:31;5.72;;;5.43;;
487;SDS011;16586;48.976;9.584;2022-11-14T04:50:58;5.70;;;5.40;;
487;SDS011;16586;48.976;9.584;2022-11-14T04:53:25;5.75;;;5.45;;
487;SDS011;16586;48.976;9.584;2022-11-14T04:55:53;5.70;;;5.40;;
487;SDS011;16586;48.976;9.584;2022-11-14T04:58:20;5.88;;;5.65;;
487;SDS011;16586;48.976;9.584;2022-11-14T05:00:47;5.75;;;5.45;;
487;SDS011;16586;48.976;9.584;2022-11-14T05:03:13;5.72;;;5.43;;
487;SDS011;16586;48.976;9.584;2022-11-14T05:05:40;5.70;;;5.40;;
487;SDS011;16586;48.976;9.584;2022-11-14T05:08:07;6.00;;;5.70;;
487;SDS011;16586;48.976;9.584;2022-11-14T05:10:34;7.17;;;6.77;;
487;SDS011;16586;48.976;9.584;2022-11-14T05:13:02;6.10;;;5.80;;
487;SDS011;16586;48.976;9.584;2022-11-14T05:15:29;5.47;;;5.18;;
487;SDS011;16586;48.976;9.584;2022-11-14T05:17:56;6.10;;;5.80;;
487;SDS011;16586;48.976;9.584;2022-11-14T05:20:23;5.50;;;5.20;;
487;SDS011;16586;48.976;9.584;2022-11-14T05:22:51;6.00;;;5.70;;
487;SDS011;16586;48.976;9.584;2022-11-14T05:25:19;6.45;;;6.00;;
487;SDS011;16586;48.976;9.584;2022-11-14T05:27:46;5.97;;;5.67;;
487;SDS011;16586;48.976;9.584;2022-11-14T05:30:14;5.77;;;5.47;;
487;SDS011;16586;48.976;9.584;2022-11-14T05:32:41;5.85;;;5.60;;
487;SDS011;16586;48.976;9.584;2022-11-14T05:35:08;6.00;;;5.70;;
487;SDS011;16586;48.976;9.584;2022-11-14T05:37:35;5.80;;;5.50;;
487;SDS011;16586;48.976;9.584;2022-11-14T05:40:02;6.00;;;5.70;;
487;SDS011;16586;48.976;9.584;2022-11-14T05:42:30;6.55;;;6.15;;
487;SDS011;16586;48.976;9.584;2022-11-14T05:44:57;5.63;;;5.32;;
487;SDS011;16586;48.976;9.584;2022-11-14T05:47:25;5.40;;;5.10;;
487;SDS011;16586;48.976;9.584;2022-11-14T05:49:52;5.82;;;5.57;;
487;SDS011;16586;48.976;9.584;2022-11-14T05:52:18;5.65;;;5.35;;
487;SDS011;16586;48.976;9.584;2022-11-14T05:54:45;5.70;;;5.40;;
487;SDS011;16586;48.976;9.584;2022-11-14T05:57:12;5.55;;;5.25;;
487;SDS011;16586;48.976;9.584;2022-11-14T05:59:39;5.72;;;5.43;;
487;SDS011;16586;48.976;9.584;2022-11-14T06:02:06;6.60;;;6.20;;
487;SDS011;16586;48.976;9.584;2022-11-14T06:04:34;5.80;;;5.50;;
487;SDS011;16586;48.976;9.584;2022-11-14T06:07:01;6.00;;;5.70;;
487;SDS011;16586;48.976;9.584;2022-11-14T06:09:27;5.43;;;5.13;;
487;SDS011;16586;48.976;9.584;2022-11-14T06:11:54;5.60;;;5.30;;
487;SDS011;16586;48.976;9.584;2022-11-14T06:14:21;5.03;;;4.78;;
487;SDS011;16586;48.976;9.584;2022-11-14T06:16:48;6.70;;;6.30;;
487;SDS011;16586;48.976;9.584;2022-11-14T06:19:15;6.30;;;5.20;;
487;SDS011;16586;48.976;9.584;2022-11-14T06:21:43;6.05;;;5.75;;
487;SDS011;16586;48.976;9.584;2022-11-14T06:24:10;6.03;;;5.50;;
487;SDS011;16586;48.976;9.584;2022-11-14T06:26:36;6.15;;;5.85;;
487;SDS011;16586;48.976;9.584;2022-11-14T06:29:03;5.38;;;5.07;;
487;SDS011;16586;48.976;9.584;2022-11-14T06:31:31;6.35;;;5.97;;
487;SDS011;16586;48.976;9.584;2022-11-14T06:33:58;5.72;;;5.43;;
487;SDS011;16586;48.976;9.584;2022-11-14T06:36:25;6.93;;;6.53;;
487;SDS011;16586;48.976;9.584;2022-11-14T06:38:53;7.20;;;6.80;;
487;SDS011;16586;48.976;9.584;2022-11-14T06:41:20;7.00;;;6.60;;
487;SDS011;16586;48.976;9.584;2022-11-14T06:43:48;7.00;;;6.60;;
487;SDS011;16586;48.976;9.584;2022-11-14T06:46:17;6.20;;;5.90;;
487;SDS011;16586;48.976;9.584;2022-11-14T06:48:45;6.07;;;5.78;;
487;SDS011;16586;48.976;9.584;2022-11-14T06:51:13;5.70;;;5.40;;
487;SDS011;16586;48.976;9.584;2022-11-14T06:53:41;5.60;;;5.30;;
487;SDS011;16586;48.976;9.584;2022-11-14T06:56:10;5.25;;;4.95;;
487;SDS011;16586;48.976;9.584;2022-11-14T06:58:40;5.78;;;5.47;;
487;SDS011;16586;48.976;9.584;2022-11-14T07:01:09;5.37;;;5.07;;
487;SDS011;16586;48.976;9.584;2022-11-14T07:03:37;4.65;;;4.35;;
487;SDS011;16586;48.976;9.584;2022-11-14T07:06:04;5.80;;;5.50;;
487;SDS011;16586;48.976;9.584;2022-11-14T07:08:32;6.78;;;6.38;;
487;SDS011;16586;48.976;9.584;2022-11-14T07:11:02;5.47;;;5.18;;
487;SDS011;16586;48.976;9.584;2022-11-14T07:13:31;6.10;;;5.80;;
487;SDS011;16586;48.976;9.584;2022-11-14T07:15:59;5.40;;;5.10;;
487;SDS011;16586;48.976;9.584;2022-11-14T07:18:26;5.30;;;5.00;;
487;SDS011;16586;48.976;9.584;2022-11-14T07:20:58;5.10;;;4.80;;
487;SDS011;16586;48.976;9.584;2022-11-14T07:23:26;4.45;;;4.15;;
487;SDS011;16586;48.976;9.584;2022-11-14T07:25:53;4.97;;;4.68;;
487;SDS011;16586;48.976;9.584;2022-11-14T07:28:20;5.80;;;5.50;;
487;SDS011;16586;48.976;9.584;2022-11-14T07:30:48;5.80;;;5.50;;
487;SDS011;16586;48.976;9.584;2022-11-14T07:33:15;5.30;;;5.00;;
487;SDS011;16586;48.976;9.584;2022-11-14T07:35:42;5.20;;;4.90;;
487;SDS011;16586;48.976;9.584;2022-11-14T07:38:08;6.00;;;5.70;;
487;SDS011;16586;48.976;9.584;2022-11-14T07:40:35;6.40;;;6.00;;
487;SDS011;16586;48.976;9.584;2022-11-14T07:43:02;5.82;;;5.60;;
487;SDS011;16586;48.976;9.584;2022-11-14T07:45:29;6.50;;;6.10;;
487;SDS011;16586;48.976;9.584;2022-11-14T07:47:58;6.43;;;6.03;;
487;SDS011;16586;48.976;9.584;2022-11-14T07:50:27;6.95;;;6.55;;
487;SDS011;16586;48.976;9.584;2022-11-14T07:52:55;6.60;;;6.20;;
487;SDS011;16586;48.976;9.584;2022-11-14T07:55:23;6.68;;;6.28;;
487;SDS011;16586;48.976;9.584;2022-11-14T07:57:54;6.40;;;6.00;;
487;SDS011;16586;48.976;9.584;2022-11-14T08:00:24;6.50;;;6.10;;
487;SDS011;16586;48.976;9.584;2022-11-14T08:02:51;7.77;;;7.37;;
487;SDS011;16586;48.976;9.584;2022-11-14T08:05:19;8.25;;;7.85;;
487;SDS011;16586;48.976;9.584;2022-11-14T08:07:46;6.75;;;6.35;;
487;SDS011;16586;48.976;9.584;2022-11-14T08:10:16;6.70;;;6.30;;
487;SDS011;16586;48.976;9.584;2022-11-14T08:12:43;5.90;;;5.60;;
487;SDS011;16586;48.976;9.584;2022-11-14T08:15:10;5.93;;;5.63;;
487;SDS011;16586;48.976;9.584;2022-11-14T08:17:38;5.60;;;5.30;;
487;SDS011;16586;48.976;9.584;2022-11-14T08:20:06;5.60;;;5.30;;
487;SDS011;16586;48.976;9.584;2022-11-14T08:22:37;5.63;;;5.32;;
487;SDS011;16586;48.976;9.584;2022-11-14T08:25:04;5.72;;;5.43;;
487;SDS011;16586;48.976;9.584;2022-11-14T08:27:34;5.93;;;5.63;;
487;SDS011;16586;48.976;9.584;2022-11-14T08:30:01;5.50;;;5.20;;
487;SDS011;16586;48.976;9.584;2022-11-14T08:32:29;5.70;;;5.40;;
487;SDS011;16586;48.976;9.584;2022-11-14T08:34:56;6.63;;;6.22;;
487;SDS011;16586;48.976;9.584;2022-11-14T08:37:23;6.10;;;5.80;;
487;SDS011;16586;48.976;9.584;2022-11-14T08:39:51;5.32;;;5.03;;
487;SDS011;16586;48.976;9.584;2022-11-14T08:42:18;5.32;;;5.03;;
487;SDS011;16586;48.976;9.584;2022-11-14T08:44:45;5.85;;;5.55;;
487;SDS011;16586;48.976;9.584;2022-11-14T08:47:11;5.20;;;4.90;;
487;SDS011;16586;48.976;9.584;2022-11-14T08:49:38;5.13;;;4.82;;
487;SDS011;16586;48.976;9.584;2022-11-14T08:52:05;5.30;;;5.00;;
487;SDS011;16586;48.976;9.584;2022-11-14T08:54:32;5.45;;;5.15;;
487;SDS011;16586;48.976;9.584;2022-11-14T08:57:00;4.97;;;4.68;;
487;SDS011;16586;48.976;9.584;2022-11-14T08:59:28;5.32;;;5.03;;
487;SDS011;16586;48.976;9.584;2022-11-14T09:01:55;6.68;;;6.28;;
487;SDS011;16586;48.976;9.584;2022-11-14T09:04:22;5.50;;;5.20;;
487;SDS011;16586;48.976;9.584;2022-11-14T09:06:49;4.95;;;4.65;;
487;SDS011;16586;48.976;9.584;2022-11-14T09:09:16;4.90;;;4.60;;
487;SDS011;16586;48.976;9.584;2022-11-14T09:11:43;9.32;;;8.82;;
487;SDS011;16586;48.976;9.584;2022-11-14T09:14:11;8.07;;;7.68;;
487;SDS011;16586;48.976;9.584;2022-11-14T09:16:38;6.10;;;5.80;;
487;SDS011;16586;48.976;9.584;2022-11-14T09:19:05;5.40;;;5.10;;
487;SDS011;16586;48.976;9.584;2022-11-14T09:21:32;5.57;;;5.28;;
487;SDS011;16586;48.976;9.584;2022-11-14T09:23:58;5.80;;;5.50;;
487;SDS011;16586;48.976;9.584;2022-11-14T09:26:25;5.95;;;5.65;;
487;SDS011;16586;48.976;9.584;2022-11-14T09:28:52;5.70;;;5.40;;
487;SDS011;16586;48.976;9.584;2022-11-14T09:31:20;5.60;;;5.30;;
487;SDS011;16586;48.976;9.584;2022-11-14T09:33:47;4.95;;;4.65;;
487;SDS011;16586;48.976;9.584;2022-11-14T09:36:14;5.32;;;5.03;;
487;SDS011;16586;48.976;9.584;2022-11-14T09:38:43;5.00;;;4.70;;
487;SDS011;16586;48.976;9.584;2022-11-14T09:41:21;5.53;;;5.22;;
487;SDS011;16586;48.976;9.584;2022-11-14T09:44:03;5.10;;;4.80;;
487;SDS011;16586;48.976;9.584;2022-11-14T09:46:52;5.78;;;5.47;;
487;SDS011;16586;48.976;9.584;2022-11-14T09:49:26;6.05;;;5.75;;
487;SDS011;16586;48.976;9.584;2022-11-14T09:51:59;4.68;;;4.38;;
487;SDS011;16586;48.976;9.584;2022-11-14T09:54:33;5.30;;;5.00;;
487;SDS011;16586;48.976;9.584;2022-11-14T09:57:08;5.07;;;4.77;;
487;SDS011;16586;48.976;9.584;2022-11-14T09:59:40;5.50;;;5.20;;
487;SDS011;16586;48.976;9.584;2022-11-14T10:02:12;5.60;;;5.30;;
487;SDS011;16586;48.976;9.584;2022-11-14T10:04:59;4.93;;;4.63;;
487;SDS011;16586;48.976;9.584;2022-11-14T10:07:43;5.47;;;5.18;;
487;SDS011;16586;48.976;9.584;2022-11-14T10:10:25;5.10;;;4.80;;
487;SDS011;16586;48.976;9.584;2022-11-14T10:13:05;5.00;;;4.70;;
487;SDS011;16586;48.976;9.584;2022-11-14T10:15:40;4.88;;;4.57;;
487;SDS011;16586;48.976;9.584;2022-11-14T10:18:17;5.32;;;5.03;;
487;SDS011;16586;48.976;9.584;2022-11-14T10:20:58;5.97;;;5.67;;
487;SDS011;16586;48.976;9.584;2022-11-14T10:23:36;6.00;;;5.70;;
487;SDS011;16586;48.976;9.584;2022-11-14T10:26:13;5.35;;;5.05;;
487;SDS011;16586;48.976;9.584;2022-11-14T10:28:52;5.85;;;5.55;;
487;SDS011;16586;48.976;9.584;2022-11-14T10:31:38;6.18;;;5.88;;
487;SDS011;16586;48.976;9.584;2022-11-14T10:34:15;7.40;;;7.00;;
487;SDS011;16586;48.976;9.584;2022-11-14T10:36:54;6.72;;;6.32;;
487;SDS011;16586;48.976;9.584;2022-11-14T10:39:25;5.75;;;5.45;;
487;SDS011;16586;48.976;9.584;2022-11-14T10:41:58;4.38;;;4.07;;
487;SDS011;16586;48.976;9.584;2022-11-14T10:44:30;4.50;;;4.20;;
487;SDS011;16586;48.976;9.584;2022-11-14T10:47:02;3.85;;;3.35;;
487;SDS011;16586;48.976;9.584;2022-11-14T10:49:33;4.53;;;3.60;;
487;SDS011;16586;48.976;9.584;2022-11-14T10:52:03;3.40;;;3.20;;
487;SDS011;16586;48.976;9.584;2022-11-14T10:54:36;2.92;;;2.83;;
487;SDS011;16586;48.976;9.584;2022-11-14T10:57:12;3.97;;;2.40;;
487;SDS011;16586;48.976;9.584;2022-11-14T10:59:41;3.08;;;2.20;;
487;SDS011;16586;48.976;9.584;2022-11-14T11:02:08;2.10;;;1.75;;
487;SDS011;16586;48.976;9.584;2022-11-14T11:04:37;2.88;;;2.00;;
487;SDS011;16586;48.976;9.584;2022-11-14T11:07:18;2.33;;;1.70;;
487;SDS011;16586;48.976;9.584;2022-11-14T11:10:05;3.13;;;2.10;;
487;SDS011;16586;48.976;9.584;2022-11-14T11:13:01;3.80;;;3.60;;
487;SDS011;16586;48.976;9.584;2022-11-14T11:15:29;8.15;;;7.75;;
487;SDS011;16586;48.976;9.584;2022-11-14T11:17:57;5.80;;;5.50;;
487;SDS011;16586;48.976;9.584;2022-11-14T11:20:28;3.03;;;2.85;;
487;SDS011;16586;48.976;9.584;2022-11-14T11:23:00;2.30;;;1.95;;
487;SDS011;16586;48.976;9.584;2022-11-14T11:25:29;2.50;;;2.30;;
487;SDS011;16586;48.976;9.584;2022-11-14T11:28:07;2.70;;;2.00;;
487;SDS011;16586;48.976;9.584;2022-11-14T11:30:38;1.80;;;1.60;;
487;SDS011;16586;48.976;9.584;2022-11-14T11:33:15;2.15;;;1.50;;
487;SDS011;16586;48.976;9.584;2022-11-14T11:35:48;1.40;;;1.00;;
487;SDS011;16586;48.976;9.584;2022-11-14T11:38:17;2.40;;;0.80;;
487;SDS011;16586;48.976;9.584;2022-11-14T11:40:45;1.30;;;0.80;;
487;SDS011;16586;48.976;9.584;2022-11-14T11:43:17;1.20;;;0.80;;
487;SDS011;16586;48.976;9.584;2022-11-14T11:45:51;1.67;;;1.02;;
487;SDS011;16586;48.976;9.584;2022-11-14T11:48:21;1.80;;;1.10;;
487;SDS011;16586;48.976;9.584;2022-11-14T11:50:50;1.50;;;1.10;;
487;SDS011;16586;48.976;9.584;2022-11-14T11:53:17;1.48;;;1.02;;
487;SDS011;16586;48.976;9.584;2022-11-14T11:55:49;1.50;;;0.95;;
487;SDS011;16586;48.976;9.584;2022-11-14T11:58:20;2.10;;;1.20;;
487;SDS011;16586;48.976;9.584;2022-11-14T12:00:50;1.60;;;0.90;;
487;SDS011;16586;48.976;9.584;2022-11-14T12:03:19;1.30;;;0.80;;
487;SDS011;16586;48.976;9.584;2022-11-14T12:05:51;1.83;;;1.50;;
487;SDS011;16586;48.976;9.584;2022-11-14T12:08:30;2.38;;;1.95;;
487;SDS011;16586;48.976;9.584;2022-11-14T12:11:01;1.73;;;1.60;;
487;SDS011;16586;48.976;9.584;2022-11-14T12:13:48;2.10;;;1.60;;
487;SDS011;16586;48.976;9.584;2022-11-14T12:16:30;3.13;;;2.22;;
487;SDS011;16586;48.976;9.584;2022-11-14T12:19:21;11.15;;;10.55;;
487;SDS011;16586;48.976;9.584;2022-11-14T12:22:16;15.63;;;14.83;;
487;SDS011;16586;48.976;9.584;2022-11-14T12:28:08;2.50;;;2.05;;
487;SDS011;16586;48.976;9.584;2022-11-14T12:30:45;2.63;;;1.87;;
487;SDS011;16586;48.976;9.584;2022-11-14T12:33:15;2.17;;;1.70;;
487;SDS011;16586;48.976;9.584;2022-11-14T12:35:48;1.70;;;1.20;;
487;SDS011;16586;48.976;9.584;2022-11-14T12:38:18;2.15;;;1.65;;
487;SDS011;16586;48.976;9.584;2022-11-14T12:40:49;3.42;;;2.92;;
487;SDS011;16586;48.976;9.584;2022-11-14T12:43:29;2.13;;;1.67;;
487;SDS011;16586;48.976;9.584;2022-11-14T12:46:00;2.25;;;1.77;;
487;SDS011;16586;48.976;9.584;2022-11-14T12:48:33;2.10;;;1.80;;
487;SDS011;16586;48.976;9.584;2022-11-14T12:51:03;1.20;;;0.80;;
487;SDS011;16586;48.976;9.584;2022-11-14T12:53:40;1.20;;;0.80;;
487;SDS011;16586;48.976;9.584;2022-11-14T12:56:14;1.20;;;0.70;;
487;SDS011;16586;48.976;9.584;2022-11-14T12:59:05;1.33;;;0.80;;
487;SDS011;16586;48.976;9.584;2022-11-14T13:01:46;1.00;;;0.50;;
487;SDS011;16586;48.976;9.584;2022-11-14T13:04:26;1.20;;;0.80;;
487;SDS011;16586;48.976;9.584;2022-11-14T13:07:09;1.10;;;0.70;;
487;SDS011;16586;48.976;9.584;2022-11-14T13:09:56;1.45;;;1.00;;
487;SDS011;16586;48.976;9.584;2022-11-14T13:12:29;1.42;;;0.70;;
487;SDS011;16586;48.976;9.584;2022-11-14T13:15:22;1.10;;;0.70;;
487;SDS011;16586;48.976;9.584;2022-11-14T13:18:13;1.20;;;0.60;;
487;SDS011;16586;48.976;9.584;2022-11-14T13:21:02;1.30;;;0.90;;
487;SDS011;16586;48.976;9.584;2022-11-14T13:23:55;1.35;;;0.80;;
487;SDS011;16586;48.976;9.584;2022-11-14T13:26:39;1.40;;;0.80;;
487;SDS011;16586;48.976;9.584;2022-11-14T13:32:12;1.00;;;0.60;;
487;SDS011;16586;48.976;9.584;2022-11-14T13:35:31;1.60;;;1.00;;
487;SDS011;16586;48.976;9.584;2022-11-14T13:41:44;1.33;;;0.63;;
487;SDS011;16586;48.976;9.584;2022-11-14T13:47:50;1.00;;;0.60;;
487;SDS011;16586;48.976;9.584;2022-11-14T13:50:42;1.20;;;0.60;;
487;SDS011;16586;48.976;9.584;2022-11-14T13:53:15;1.02;;;0.55;;
487;SDS011;16586;48.976;9.584;2022-11-14T13:55:59;0.95;;;0.50;;
487;SDS011;16586;48.976;9.584;2022-11-14T13:58:40;1.60;;;0.80;;
487;SDS011;16586;48.976;9.584;2022-11-14T14:01:33;1.50;;;0.90;;
487;SDS011;16586;48.976;9.584;2022-11-14T14:04:12;1.20;;;0.60;;
487;SDS011;16586;48.976;9.584;2022-11-14T14:06:55;0.90;;;0.50;;
487;SDS011;16586;48.976;9.584;2022-11-14T14:09:32;1.30;;;0.60;;
487;SDS011;16586;48.976;9.584;2022-11-14T14:12:18;1.00;;;0.57;;
487;SDS011;16586;48.976;9.584;2022-11-14T14:17:48;1.70;;;0.80;;
487;SDS011;16586;48.976;9.584;2022-11-14T14:20:29;1.20;;;0.70;;
487;SDS011;16586;48.976;9.584;2022-11-14T14:23:07;2.10;;;0.60;;
487;SDS011;16586;48.976;9.584;2022-11-14T14:25:46;1.80;;;0.60;;
487;SDS011;16586;48.976;9.584;2022-11-14T14:28:23;1.10;;;0.70;;
487;SDS011;16586;48.976;9.584;2022-11-14T14:31:00;1.10;;;0.68;;
487;SDS011;16586;48.976;9.584;2022-11-14T14:33:39;1.90;;;0.70;;
487;SDS011;16586;48.976;9.584;2022-11-14T14:36:15;1.80;;;1.23;;
487;SDS011;16586;48.976;9.584;2022-11-14T14:38:44;1.60;;;1.20;;
487;SDS011;16586;48.976;9.584;2022-11-14T14:41:11;1.35;;;0.90;;
487;SDS011;16586;48.976;9.584;2022-11-14T14:43:41;1.10;;;0.65;;
487;SDS011;16586;48.976;9.584;2022-11-14T14:46:10;1.20;;;0.70;;
487;SDS011;16586;48.976;9.584;2022-11-14T14:48:38;1.20;;;0.70;;
487;SDS011;16586;48.976;9.584;2022-11-14T14:51:10;1.60;;;0.90;;
487;SDS011;16586;48.976;9.584;2022-11-14T14:53:39;0.93;;;0.60;;
487;SDS011;16586;48.976;9.584;2022-11-14T14:56:17;1.10;;;0.87;;
487;SDS011;16586;48.976;9.584;2022-11-14T14:58:45;1.20;;;0.60;;
487;SDS011;16586;48.976;9.584;2022-11-14T15:01:14;1.30;;;0.60;;
487;SDS011;16586;48.976;9.584;2022-11-14T15:03:43;1.40;;;0.90;;
487;SDS011;16586;48.976;9.584;2022-11-14T15:06:19;1.00;;;0.60;;
487;SDS011;16586;48.976;9.584;2022-11-14T15:08:53;0.93;;;0.50;;
487;SDS011;16586;48.976;9.584;2022-11-14T15:11:21;1.23;;;0.60;;
487;SDS011;16586;48.976;9.584;2022-11-14T15:13:52;1.10;;;0.70;;
487;SDS011;16586;48.976;9.584;2022-11-14T15:16:23;1.30;;;0.90;;
487;SDS011;16586;48.976;9.584;2022-11-14T15:18:51;1.10;;;0.60;;
487;SDS011;16586;48.976;9.584;2022-11-14T15:21:24;1.30;;;0.80;;
487;SDS011;16586;48.976;9.584;2022-11-14T15:23:59;1.20;;;0.70;;
487;SDS011;16586;48.976;9.584;2022-11-14T15:26:27;1.20;;;0.60;;
487;SDS011;16586;48.976;9.584;2022-11-14T15:29:03;2.58;;;0.70;;
487;SDS011;16586;48.976;9.584;2022-11-14T15:31:32;1.20;;;0.80;;
487;SDS011;16586;48.976;9.584;2022-11-14T15:34:02;2.03;;;1.00;;
487;SDS011;16586;48.976;9.584;2022-11-14T15:36:30;1.00;;;0.77;;
487;SDS011;16586;48.976;9.584;2022-11-14T15:38:58;1.00;;;0.60;;
487;SDS011;16586;48.976;9.584;2022-11-14T15:41:26;1.30;;;0.70;;
487;SDS011;16586;48.976;9.584;2022-11-14T15:43:54;1.80;;;0.80;;
487;SDS011;16586;48.976;9.584;2022-11-14T15:49:20;1.90;;;1.10;;
487;SDS011;16586;48.976;9.584;2022-11-14T15:51:49;1.60;;;1.00;;
487;SDS011;16586;48.976;9.584;2022-11-14T15:54:21;1.73;;;0.80;;